sensor_id;sensor_type;location;lat;lon;timestamp;temperature;humidity
2907;DHT22;1463;51.070;16.998;2023-12-29T00:01:31;7.20;99.90
2907;DHT22;1463;51.070;16.998;2023-12-29T00:03:58;7.20;99.90
2907;DHT22;1463;51.070;16.998;2023-12-29T00:06:24;7.20;99.90
2907;DHT22;1463;51.070;16.998;2023-12-29T00:08:51;7.20;99.90
2907;DHT22;1463;51.070;16.998;2023-12-29T00:11:18;7.10;99.90
2907;DHT22;1463;51.070;16.998;2023-12-29T00:13:45;7.00;99.90
2907;DHT22;1463;51.070;16.998;2023-12-29T00:16:12;7.10;99.90
2907;DHT22;1463;51.070;16.998;2023-12-29T00:18:40;7.00;99.90
2907;DHT22;1463;51.070;16.998;2023-12-29T00:21:07;7.10;99.90
2907;DHT22;1463;51.070;16.998;2023-12-29T00:23:33;7.10;99.90
2907;DHT22;1463;51.070;16.998;2023-12-29T00:26:00;7.10;99.90
2907;DHT22;1463;51.070;16.998;2023-12-29T00:28:27;7.10;99.90
2907;DHT22;1463;51.070;16.998;2023-12-29T00:30:53;7.10;99.90
2907;DHT22;1463;51.070;16.998;2023-12-29T00:33:20;7.00;99.90
2907;DHT22;1463;51.070;16.998;2023-12-29T00:35:48;7.10;99.90
2907;DHT22;1463;51.070;16.998;2023-12-29T00:38:15;7.10;99.90
2907;DHT22;1463;51.070;16.998;2023-12-29T00:40:41;7.10;99.90
2907;DHT22;1463;51.070;16.998;2023-12-29T00:43:08;7.10;99.90
2907;DHT22;1463;51.070;16.998;2023-12-29T00:45:34;7.00;99.90
2907;DHT22;1463;51.070;16.998;2023-12-29T00:48:01;7.00;99.90
2907;DHT22;1463;51.070;16.998;2023-12-29T00:50:28;7.00;99.90
2907;DHT22;1463;51.070;16.998;2023-12-29T00:52:56;7.00;99.90
2907;DHT22;1463;51.070;16.998;2023-12-29T00:55:23;7.00;99.90
2907;DHT22;1463;51.070;16.998;2023-12-29T00:57:49;6.90;99.90
2907;DHT22;1463;51.070;16.998;2023-12-29T01:00:16;7.00;99.90
2907;DHT22;1463;51.070;16.998;2023-12-29T01:02:43;6.90;99.90
2907;DHT22;1463;51.070;16.998;2023-12-29T01:05:10;6.90;99.90
2907;DHT22;1463;51.070;16.998;2023-12-29T01:07:36;6.90;99.90
2907;DHT22;1463;51.070;16.998;2023-12-29T01:10:06;6.80;99.90
2907;DHT22;1463;51.070;16.998;2023-12-29T01:12:32;6.90;99.90
2907;DHT22;1463;51.070;16.998;2023-12-29T01:14:59;6.80;99.90
2907;DHT22;1463;51.070;16.998;2023-12-29T01:17:26;6.90;99.90
2907;DHT22;1463;51.070;16.998;2023-12-29T01:19:53;6.80;99.90
2907;DHT22;1463;51.070;16.998;2023-12-29T01:22:20;6.80;99.90
2907;DHT22;1463;51.070;16.998;2023-12-29T01:24:47;6.90;99.90
2907;DHT22;1463;51.070;16.998;2023-12-29T01:27:15;6.90;99.90
2907;DHT22;1463;51.070;16.998;2023-12-29T01:29:41;6.90;99.90
2907;DHT22;1463;51.070;16.998;2023-12-29T01:32:08;6.90;99.90
2907;DHT22;1463;51.070;16.998;2023-12-29T01:34:36;6.90;99.90
2907;DHT22;1463;51.070;16.998;2023-12-29T01:37:03;6.90;99.90
2907;DHT22;1463;51.070;16.998;2023-12-29T01:39:29;6.90;99.90
2907;DHT22;1463;51.070;16.998;2023-12-29T01:41:56;6.90;99.90
2907;DHT22;1463;51.070;16.998;2023-12-29T01:44:24;6.90;99.90
2907;DHT22;1463;51.070;16.998;2023-12-29T01:46:53;6.90;99.90
2907;DHT22;1463;51.070;16.998;2023-12-29T01:49:21;7.00;99.90
2907;DHT22;1463;51.070;16.998;2023-12-29T01:51:49;7.00;99.90
2907;DHT22;1463;51.070;16.998;2023-12-29T01:54:18;6.90;99.90
2907;DHT22;1463;51.070;16.998;2023-12-29T01:56:45;6.90;99.90
2907;DHT22;1463;51.070;16.998;2023-12-29T01:59:13;6.90;99.90
2907;DHT22;1463;51.070;16.998;2023-12-29T02:01:41;6.90;99.90
2907;DHT22;1463;51.070;16.998;2023-12-29T02:04:12;6.80;99.90
2907;DHT22;1463;51.070;16.998;2023-12-29T02:06:40;6.70;99.90
2907;DHT22;1463;51.070;16.998;2023-12-29T02:09:07;6.70;99.90
2907;DHT22;1463;51.070;16.998;2023-12-29T02:11:35;6.80;99.90
2907;DHT22;1463;51.070;16.998;2023-12-29T02:14:02;6.80;99.90
2907;DHT22;1463;51.070;16.998;2023-12-29T02:16:35;6.80;99.90
2907;DHT22;1463;51.070;16.998;2023-12-29T02:19:13;6.80;99.90
2907;DHT22;1463;51.070;16.998;2023-12-29T02:21:43;6.70;99.90
2907;DHT22;1463;51.070;16.998;2023-12-29T02:24:10;6.80;99.90
2907;DHT22;1463;51.070;16.998;2023-12-29T02:26:38;6.70;99.90
2907;DHT22;1463;51.070;16.998;2023-12-29T02:29:09;6.80;99.90
2907;DHT22;1463;51.070;16.998;2023-12-29T02:31:39;6.80;99.90
2907;DHT22;1463;51.070;16.998;2023-12-29T02:34:10;6.90;99.90
2907;DHT22;1463;51.070;16.998;2023-12-29T02:36:40;6.90;99.90
2907;DHT22;1463;51.070;16.998;2023-12-29T02:39:08;6.90;99.90
2907;DHT22;1463;51.070;16.998;2023-12-29T02:41:38;6.90;99.90
2907;DHT22;1463;51.070;16.998;2023-12-29T02:44:05;6.90;99.90
2907;DHT22;1463;51.070;16.998;2023-12-29T02:46:31;6.90;99.90
2907;DHT22;1463;51.070;16.998;2023-12-29T02:48:58;6.90;99.90
2907;DHT22;1463;51.070;16.998;2023-12-29T02:51:25;7.00;99.90
2907;DHT22;1463;51.070;16.998;2023-12-29T02:53:52;6.90;99.90
2907;DHT22;1463;51.070;16.998;2023-12-29T02:56:18;6.90;99.90
2907;DHT22;1463;51.070;16.998;2023-12-29T02:58:46;6.90;99.90
2907;DHT22;1463;51.070;16.998;2023-12-29T03:01:13;6.90;99.90
2907;DHT22;1463;51.070;16.998;2023-12-29T03:03:40;6.90;99.90
2907;DHT22;1463;51.070;16.998;2023-12-29T03:06:07;7.00;99.90
2907;DHT22;1463;51.070;16.998;2023-12-29T03:08:33;7.00;99.90
2907;DHT22;1463;51.070;16.998;2023-12-29T03:11:03;6.90;99.90
2907;DHT22;1463;51.070;16.998;2023-12-29T03:13:30;7.00;99.90
2907;DHT22;1463;51.070;16.998;2023-12-29T03:15:58;7.00;99.90
2907;DHT22;1463;51.070;16.998;2023-12-29T03:18:24;7.00;99.90
2907;DHT22;1463;51.070;16.998;2023-12-29T03:20:51;7.00;99.90
2907;DHT22;1463;51.070;16.998;2023-12-29T03:23:17;7.00;99.90
2907;DHT22;1463;51.070;16.998;2023-12-29T03:25:44;7.10;99.90
2907;DHT22;1463;51.070;16.998;2023-12-29T03:28:11;7.10;99.90
2907;DHT22;1463;51.070;16.998;2023-12-29T03:30:37;7.10;99.90
2907;DHT22;1463;51.070;16.998;2023-12-29T03:33:05;7.10;99.90
2907;DHT22;1463;51.070;16.998;2023-12-29T03:35:32;7.10;99.90
2907;DHT22;1463;51.070;16.998;2023-12-29T03:37:59;7.20;99.90
2907;DHT22;1463;51.070;16.998;2023-12-29T03:40:25;7.20;99.90
2907;DHT22;1463;51.070;16.998;2023-12-29T03:42:52;7.20;99.90
2907;DHT22;1463;51.070;16.998;2023-12-29T03:45:19;7.30;99.90
2907;DHT22;1463;51.070;16.998;2023-12-29T03:47:45;7.20;99.90
2907;DHT22;1463;51.070;16.998;2023-12-29T03:50:13;7.20;99.90
2907;DHT22;1463;51.070;16.998;2023-12-29T03:52:40;7.20;99.90
2907;DHT22;1463;51.070;16.998;2023-12-29T03:55:07;7.30;99.90
2907;DHT22;1463;51.070;16.998;2023-12-29T03:57:34;7.30;99.90
2907;DHT22;1463;51.070;16.998;2023-12-29T04:00:00;7.30;99.90
2907;DHT22;1463;51.070;16.998;2023-12-29T04:02:28;7.30;99.90
2907;DHT22;1463;51.070;16.998;2023-12-29T04:04:54;7.30;99.90
2907;DHT22;1463;51.070;16.998;2023-12-29T04:07:22;7.30;99.90
2907;DHT22;1463;51.070;16.998;2023-12-29T04:09:49;7.20;99.90
2907;DHT22;1463;51.070;16.998;2023-12-29T04:12:16;7.20;99.90
2907;DHT22;1463;51.070;16.998;2023-12-29T04:14:42;7.10;99.90
2907;DHT22;1463;51.070;16.998;2023-12-29T04:17:09;7.10;99.90
2907;DHT22;1463;51.070;16.998;2023-12-29T04:19:39;7.20;99.90
2907;DHT22;1463;51.070;16.998;2023-12-29T04:22:06;7.20;99.90
2907;DHT22;1463;51.070;16.998;2023-12-29T04:24:34;7.20;99.90
2907;DHT22;1463;51.070;16.998;2023-12-29T04:27:01;7.20;99.90
2907;DHT22;1463;51.070;16.998;2023-12-29T04:29:27;7.20;99.90
2907;DHT22;1463;51.070;16.998;2023-12-29T04:31:54;7.20;99.90
2907;DHT22;1463;51.070;16.998;2023-12-29T04:34:21;7.10;99.90
2907;DHT22;1463;51.070;16.998;2023-12-29T04:36:47;7.10;99.90
2907;DHT22;1463;51.070;16.998;2023-12-29T04:39:14;7.20;99.90
2907;DHT22;1463;51.070;16.998;2023-12-29T04:41:42;7.20;99.90
2907;DHT22;1463;51.070;16.998;2023-12-29T04:44:09;7.20;99.90
2907;DHT22;1463;51.070;16.998;2023-12-29T04:46:35;7.10;99.90
2907;DHT22;1463;51.070;16.998;2023-12-29T04:49:02;7.00;99.90
2907;DHT22;1463;51.070;16.998;2023-12-29T04:51:28;7.00;99.90
2907;DHT22;1463;51.070;16.998;2023-12-29T04:53:55;7.00;99.90
2907;DHT22;1463;51.070;16.998;2023-12-29T04:56:22;7.10;99.90
2907;DHT22;1463;51.070;16.998;2023-12-29T04:58:51;7.10;99.90
2907;DHT22;1463;51.070;16.998;2023-12-29T05:01:18;7.10;99.90
2907;DHT22;1463;51.070;16.998;2023-12-29T05:03:44;7.00;99.90
2907;DHT22;1463;51.070;16.998;2023-12-29T05:06:11;7.00;99.90
2907;DHT22;1463;51.070;16.998;2023-12-29T05:08:38;7.10;99.90
2907;DHT22;1463;51.070;16.998;2023-12-29T05:11:04;7.10;99.90
2907;DHT22;1463;51.070;16.998;2023-12-29T05:13:31;7.20;99.90
2907;DHT22;1463;51.070;16.998;2023-12-29T05:16:00;7.20;99.90
2907;DHT22;1463;51.070;16.998;2023-12-29T05:18:29;7.30;99.90
2907;DHT22;1463;51.070;16.998;2023-12-29T05:20:56;7.20;99.90
2907;DHT22;1463;51.070;16.998;2023-12-29T05:23:22;7.20;99.90
2907;DHT22;1463;51.070;16.998;2023-12-29T05:25:49;7.20;99.90
2907;DHT22;1463;51.070;16.998;2023-12-29T05:28:15;7.10;99.90
2907;DHT22;1463;51.070;16.998;2023-12-29T05:30:42;7.20;99.90
2907;DHT22;1463;51.070;16.998;2023-12-29T05:33:10;7.10;99.90
2907;DHT22;1463;51.070;16.998;2023-12-29T05:35:37;7.20;99.90
2907;DHT22;1463;51.070;16.998;2023-12-29T05:38:04;7.20;99.90
2907;DHT22;1463;51.070;16.998;2023-12-29T05:40:30;7.20;99.90
2907;DHT22;1463;51.070;16.998;2023-12-29T05:42:57;7.20;99.90
2907;DHT22;1463;51.070;16.998;2023-12-29T05:45:24;7.20;99.90
2907;DHT22;1463;51.070;16.998;2023-12-29T05:47:50;7.20;99.90
2907;DHT22;1463;51.070;16.998;2023-12-29T05:50:18;7.20;99.90
2907;DHT22;1463;51.070;16.998;2023-12-29T05:52:45;7.20;99.90
2907;DHT22;1463;51.070;16.998;2023-12-29T05:55:15;7.20;99.90
2907;DHT22;1463;51.070;16.998;2023-12-29T05:57:41;7.20;99.90
2907;DHT22;1463;51.070;16.998;2023-12-29T06:00:10;7.20;99.90
2907;DHT22;1463;51.070;16.998;2023-12-29T06:02:39;7.20;99.90
2907;DHT22;1463;51.070;16.998;2023-12-29T06:05:07;7.20;99.90
2907;DHT22;1463;51.070;16.998;2023-12-29T06:07:35;7.30;99.90
2907;DHT22;1463;51.070;16.998;2023-12-29T06:10:02;7.20;99.90
2907;DHT22;1463;51.070;16.998;2023-12-29T06:12:29;7.20;99.90
2907;DHT22;1463;51.070;16.998;2023-12-29T06:14:55;7.10;99.90
2907;DHT22;1463;51.070;16.998;2023-12-29T06:17:22;7.20;99.90
2907;DHT22;1463;51.070;16.998;2023-12-29T06:19:49;7.20;99.90
2907;DHT22;1463;51.070;16.998;2023-12-29T06:22:15;7.20;99.90
2907;DHT22;1463;51.070;16.998;2023-12-29T06:24:43;7.20;99.90
2907;DHT22;1463;51.070;16.998;2023-12-29T06:27:12;7.20;99.90
2907;DHT22;1463;51.070;16.998;2023-12-29T06:29:41;7.20;99.90
2907;DHT22;1463;51.070;16.998;2023-12-29T06:32:08;7.30;99.90
2907;DHT22;1463;51.070;16.998;2023-12-29T06:34:35;7.30;99.90
2907;DHT22;1463;51.070;16.998;2023-12-29T06:37:02;7.40;99.90
2907;DHT22;1463;51.070;16.998;2023-12-29T06:39:28;7.30;99.90
2907;DHT22;1463;51.070;16.998;2023-12-29T06:41:56;7.30;99.90
2907;DHT22;1463;51.070;16.998;2023-12-29T06:44:24;7.30;99.90
2907;DHT22;1463;51.070;16.998;2023-12-29T06:46:51;7.30;99.90
2907;DHT22;1463;51.070;16.998;2023-12-29T06:49:17;7.30;99.90
2907;DHT22;1463;51.070;16.998;2023-12-29T06:51:44;7.30;99.90
2907;DHT22;1463;51.070;16.998;2023-12-29T06:54:11;7.30;99.90
2907;DHT22;1463;51.070;16.998;2023-12-29T06:56:38;7.30;99.90
2907;DHT22;1463;51.070;16.998;2023-12-29T06:59:06;7.30;99.90
2907;DHT22;1463;51.070;16.998;2023-12-29T07:01:33;7.40;99.90
2907;DHT22;1463;51.070;16.998;2023-12-29T07:04:00;7.40;99.90
2907;DHT22;1463;51.070;16.998;2023-12-29T07:06:27;7.40;99.90
2907;DHT22;1463;51.070;16.998;2023-12-29T07:08:53;7.40;99.90
2907;DHT22;1463;51.070;16.998;2023-12-29T07:11:21;7.30;99.90
2907;DHT22;1463;51.070;16.998;2023-12-29T07:13:47;7.30;99.90
2907;DHT22;1463;51.070;16.998;2023-12-29T07:16:15;7.30;99.90
2907;DHT22;1463;51.070;16.998;2023-12-29T07:18:45;7.40;99.90
2907;DHT22;1463;51.070;16.998;2023-12-29T07:21:11;7.40;99.90
2907;DHT22;1463;51.070;16.998;2023-12-29T07:23:38;7.40;99.90
2907;DHT22;1463;51.070;16.998;2023-12-29T07:26:05;7.40;99.90
2907;DHT22;1463;51.070;16.998;2023-12-29T07:28:32;7.50;99.90
2907;DHT22;1463;51.070;16.998;2023-12-29T07:30:59;7.40;99.90
2907;DHT22;1463;51.070;16.998;2023-12-29T07:33:27;7.50;99.90
2907;DHT22;1463;51.070;16.998;2023-12-29T07:35:54;7.50;99.90
2907;DHT22;1463;51.070;16.998;2023-12-29T07:38:21;7.50;99.90
2907;DHT22;1463;51.070;16.998;2023-12-29T07:40:47;7.50;99.90
2907;DHT22;1463;51.070;16.998;2023-12-29T07:43:14;7.40;99.90
2907;DHT22;1463;51.070;16.998;2023-12-29T07:45:41;7.50;99.90
2907;DHT22;1463;51.070;16.998;2023-12-29T07:48:08;7.50;99.90
2907;DHT22;1463;51.070;16.998;2023-12-29T07:50:36;7.50;99.90
2907;DHT22;1463;51.070;16.998;2023-12-29T07:53:03;7.50;99.90
2907;DHT22;1463;51.070;16.998;2023-12-29T07:55:31;7.50;99.90
2907;DHT22;1463;51.070;16.998;2023-12-29T07:57:58;7.60;99.90
2907;DHT22;1463;51.070;16.998;2023-12-29T08:00:24;7.70;99.90
2907;DHT22;1463;51.070;16.998;2023-12-29T08:02:52;7.60;99.90
2907;DHT22;1463;51.070;16.998;2023-12-29T08:05:18;7.70;99.90
2907;DHT22;1463;51.070;16.998;2023-12-29T08:07:47;7.70;99.90
2907;DHT22;1463;51.070;16.998;2023-12-29T08:10:13;7.70;99.90
2907;DHT22;1463;51.070;16.998;2023-12-29T08:12:40;7.80;99.90
2907;DHT22;1463;51.070;16.998;2023-12-29T08:15:07;7.90;99.90
2907;DHT22;1463;51.070;16.998;2023-12-29T08:17:34;8.00;99.90
2907;DHT22;1463;51.070;16.998;2023-12-29T08:20:01;8.00;99.90
2907;DHT22;1463;51.070;16.998;2023-12-29T08:22:29;8.00;99.90
2907;DHT22;1463;51.070;16.998;2023-12-29T08:24:59;8.00;99.90
2907;DHT22;1463;51.070;16.998;2023-12-29T08:27:25;8.10;99.90
2907;DHT22;1463;51.070;16.998;2023-12-29T08:29:52;8.10;99.90
2907;DHT22;1463;51.070;16.998;2023-12-29T08:32:19;8.20;99.90
2907;DHT22;1463;51.070;16.998;2023-12-29T08:34:46;8.20;99.90
2907;DHT22;1463;51.070;16.998;2023-12-29T08:37:13;8.30;99.90
2907;DHT22;1463;51.070;16.998;2023-12-29T08:39:45;8.30;99.90
2907;DHT22;1463;51.070;16.998;2023-12-29T08:42:13;8.40;99.90
2907;DHT22;1463;51.070;16.998;2023-12-29T08:44:40;8.50;99.90
2907;DHT22;1463;51.070;16.998;2023-12-29T08:47:07;8.50;99.90
2907;DHT22;1463;51.070;16.998;2023-12-29T08:49:35;8.60;99.90
2907;DHT22;1463;51.070;16.998;2023-12-29T08:52:01;8.70;99.90
2907;DHT22;1463;51.070;16.998;2023-12-29T08:54:28;8.80;99.90
2907;DHT22;1463;51.070;16.998;2023-12-29T08:56:55;8.80;99.90
2907;DHT22;1463;51.070;16.998;2023-12-29T08:59:23;8.90;99.90
2907;DHT22;1463;51.070;16.998;2023-12-29T09:01:49;9.00;99.90
2907;DHT22;1463;51.070;16.998;2023-12-29T09:04:16;9.00;99.90
2907;DHT22;1463;51.070;16.998;2023-12-29T09:06:43;9.10;99.90
2907;DHT22;1463;51.070;16.998;2023-12-29T09:09:09;9.30;99.90
2907;DHT22;1463;51.070;16.998;2023-12-29T09:11:38;9.60;99.90
2907;DHT22;1463;51.070;16.998;2023-12-29T09:14:05;9.50;99.90
2907;DHT22;1463;51.070;16.998;2023-12-29T09:16:35;9.80;99.90
2907;DHT22;1463;51.070;16.998;2023-12-29T09:19:02;9.90;99.90
2907;DHT22;1463;51.070;16.998;2023-12-29T09:21:28;9.90;99.90
2907;DHT22;1463;51.070;16.998;2023-12-29T09:23:55;9.80;99.90
2907;DHT22;1463;51.070;16.998;2023-12-29T09:26:22;9.90;99.90
2907;DHT22;1463;51.070;16.998;2023-12-29T09:28:48;9.80;99.90
2907;DHT22;1463;51.070;16.998;2023-12-29T09:31:15;9.90;99.90
2907;DHT22;1463;51.070;16.998;2023-12-29T09:33:43;10.00;99.90
2907;DHT22;1463;51.070;16.998;2023-12-29T09:36:10;10.40;99.90
2907;DHT22;1463;51.070;16.998;2023-12-29T09:38:36;10.30;99.90
2907;DHT22;1463;51.070;16.998;2023-12-29T09:41:05;10.30;99.90
2907;DHT22;1463;51.070;16.998;2023-12-29T09:43:33;10.50;99.90
2907;DHT22;1463;51.070;16.998;2023-12-29T09:46:01;10.50;99.90
2907;DHT22;1463;51.070;16.998;2023-12-29T09:48:31;10.50;99.90
2907;DHT22;1463;51.070;16.998;2023-12-29T09:51:01;10.50;99.90
2907;DHT22;1463;51.070;16.998;2023-12-29T09:53:28;10.50;99.90
2907;DHT22;1463;51.070;16.998;2023-12-29T09:55:57;10.40;99.90
2907;DHT22;1463;51.070;16.998;2023-12-29T09:58:25;10.60;99.90
2907;DHT22;1463;51.070;16.998;2023-12-29T10:00:52;10.70;99.90
2907;DHT22;1463;51.070;16.998;2023-12-29T10:03:19;10.60;99.90
2907;DHT22;1463;51.070;16.998;2023-12-29T10:05:50;11.00;99.90
2907;DHT22;1463;51.070;16.998;2023-12-29T10:08:21;11.10;99.90
2907;DHT22;1463;51.070;16.998;2023-12-29T10:10:48;11.00;99.90
2907;DHT22;1463;51.070;16.998;2023-12-29T10:13:17;11.20;99.90
2907;DHT22;1463;51.070;16.998;2023-12-29T10:15:49;11.20;99.90
2907;DHT22;1463;51.070;16.998;2023-12-29T10:18:22;11.20;99.90
2907;DHT22;1463;51.070;16.998;2023-12-29T10:20:52;11.40;99.90
2907;DHT22;1463;51.070;16.998;2023-12-29T10:23:31;11.70;99.90
2907;DHT22;1463;51.070;16.998;2023-12-29T10:25:58;11.80;99.90
2907;DHT22;1463;51.070;16.998;2023-12-29T10:28:25;12.10;99.90
2907;DHT22;1463;51.070;16.998;2023-12-29T10:30:51;13.30;99.90
2907;DHT22;1463;51.070;16.998;2023-12-29T10:33:21;13.50;99.90
2907;DHT22;1463;51.070;16.998;2023-12-29T10:35:57;12.70;99.90
2907;DHT22;1463;51.070;16.998;2023-12-29T10:38:29;12.50;99.90
2907;DHT22;1463;51.070;16.998;2023-12-29T10:41:10;13.00;99.90
2907;DHT22;1463;51.070;16.998;2023-12-29T10:43:38;13.30;99.90
2907;DHT22;1463;51.070;16.998;2023-12-29T10:46:06;13.70;99.90
2907;DHT22;1463;51.070;16.998;2023-12-29T10:48:34;14.00;99.90
2907;DHT22;1463;51.070;16.998;2023-12-29T10:51:00;13.70;99.90
2907;DHT22;1463;51.070;16.998;2023-12-29T10:53:31;13.80;99.90
2907;DHT22;1463;51.070;16.998;2023-12-29T10:55:58;13.80;99.90
2907;DHT22;1463;51.070;16.998;2023-12-29T10:58:25;13.70;99.90
2907;DHT22;1463;51.070;16.998;2023-12-29T11:00:53;13.90;99.90
2907;DHT22;1463;51.070;16.998;2023-12-29T11:03:19;14.00;99.90
2907;DHT22;1463;51.070;16.998;2023-12-29T11:05:46;13.90;99.90
2907;DHT22;1463;51.070;16.998;2023-12-29T11:08:16;13.80;99.90
2907;DHT22;1463;51.070;16.998;2023-12-29T11:10:45;13.60;99.90
2907;DHT22;1463;51.070;16.998;2023-12-29T11:13:12;13.30;99.90
2907;DHT22;1463;51.070;16.998;2023-12-29T11:15:42;13.30;99.90
2907;DHT22;1463;51.070;16.998;2023-12-29T11:18:12;12.90;99.90
2907;DHT22;1463;51.070;16.998;2023-12-29T11:20:39;13.10;99.90
2907;DHT22;1463;51.070;16.998;2023-12-29T11:23:07;13.20;99.90
2907;DHT22;1463;51.070;16.998;2023-12-29T11:25:35;13.40;99.90
2907;DHT22;1463;51.070;16.998;2023-12-29T11:28:05;13.10;99.90
2907;DHT22;1463;51.070;16.998;2023-12-29T11:30:32;13.00;99.90
2907;DHT22;1463;51.070;16.998;2023-12-29T11:33:01;13.10;99.90
2907;DHT22;1463;51.070;16.998;2023-12-29T11:35:32;12.60;99.90
2907;DHT22;1463;51.070;16.998;2023-12-29T11:38:13;12.50;99.90
2907;DHT22;1463;51.070;16.998;2023-12-29T11:40:44;12.60;99.90
2907;DHT22;1463;51.070;16.998;2023-12-29T11:43:17;13.00;99.90
2907;DHT22;1463;51.070;16.998;2023-12-29T11:45:44;13.20;99.90
2907;DHT22;1463;51.070;16.998;2023-12-29T11:48:11;13.30;99.90
2907;DHT22;1463;51.070;16.998;2023-12-29T11:50:39;13.20;99.90
2907;DHT22;1463;51.070;16.998;2023-12-29T11:53:06;13.20;99.90
2907;DHT22;1463;51.070;16.998;2023-12-29T11:55:35;13.20;99.90
2907;DHT22;1463;51.070;16.998;2023-12-29T11:58:03;13.40;99.90
2907;DHT22;1463;51.070;16.998;2023-12-29T12:00:47;13.60;99.90
2907;DHT22;1463;51.070;16.998;2023-12-29T12:03:18;13.70;99.90
2907;DHT22;1463;51.070;16.998;2023-12-29T12:05:45;13.70;99.90
2907;DHT22;1463;51.070;16.998;2023-12-29T12:08:26;13.70;99.90
2907;DHT22;1463;51.070;16.998;2023-12-29T12:10:53;13.30;99.90
2907;DHT22;1463;51.070;16.998;2023-12-29T12:13:44;13.10;99.90
2907;DHT22;1463;51.070;16.998;2023-12-29T12:19:13;12.90;99.90
2907;DHT22;1463;51.070;16.998;2023-12-29T12:21:40;13.00;99.90
2907;DHT22;1463;51.070;16.998;2023-12-29T12:24:07;12.90;99.90
2907;DHT22;1463;51.070;16.998;2023-12-29T12:26:34;12.90;99.90
2907;DHT22;1463;51.070;16.998;2023-12-29T12:29:01;12.70;99.90
2907;DHT22;1463;51.070;16.998;2023-12-29T12:31:29;12.50;99.90
2907;DHT22;1463;51.070;16.998;2023-12-29T12:33:56;12.70;99.90
2907;DHT22;1463;51.070;16.998;2023-12-29T12:36:24;12.70;99.90
2907;DHT22;1463;51.070;16.998;2023-12-29T12:38:52;12.60;99.90
2907;DHT22;1463;51.070;16.998;2023-12-29T12:41:19;12.50;99.90
2907;DHT22;1463;51.070;16.998;2023-12-29T12:43:59;12.50;99.90
2907;DHT22;1463;51.070;16.998;2023-12-29T12:46:33;12.30;99.90
2907;DHT22;1463;51.070;16.998;2023-12-29T12:49:01;12.40;99.90
2907;DHT22;1463;51.070;16.998;2023-12-29T12:51:29;12.40;99.90
2907;DHT22;1463;51.070;16.998;2023-12-29T12:53:57;12.30;99.90
2907;DHT22;1463;51.070;16.998;2023-12-29T12:56:23;12.20;99.90
2907;DHT22;1463;51.070;16.998;2023-12-29T12:58:53;12.20;99.90
2907;DHT22;1463;51.070;16.998;2023-12-29T13:01:19;12.20;99.90
2907;DHT22;1463;51.070;16.998;2023-12-29T13:03:46;12.20;99.90
2907;DHT22;1463;51.070;16.998;2023-12-29T13:06:13;12.60;99.90
2907;DHT22;1463;51.070;16.998;2023-12-29T13:08:43;12.80;99.90
2907;DHT22;1463;51.070;16.998;2023-12-29T13:11:10;12.50;99.90
2907;DHT22;1463;51.070;16.998;2023-12-29T13:13:38;12.80;99.90
2907;DHT22;1463;51.070;16.998;2023-12-29T13:16:06;12.90;99.90
2907;DHT22;1463;51.070;16.998;2023-12-29T13:18:32;13.20;99.90
2907;DHT22;1463;51.070;16.998;2023-12-29T13:21:00;12.90;99.90
2907;DHT22;1463;51.070;16.998;2023-12-29T13:23:27;12.70;99.90
2907;DHT22;1463;51.070;16.998;2023-12-29T13:25:57;12.20;99.90
2907;DHT22;1463;51.070;16.998;2023-12-29T13:28:26;12.10;99.90
2907;DHT22;1463;51.070;16.998;2023-12-29T13:30:54;12.00;99.90
2907;DHT22;1463;51.070;16.998;2023-12-29T13:33:27;12.00;99.90
2907;DHT22;1463;51.070;16.998;2023-12-29T13:36:00;11.90;99.90
2907;DHT22;1463;51.070;16.998;2023-12-29T13:38:37;11.80;99.90
2907;DHT22;1463;51.070;16.998;2023-12-29T13:41:11;12.00;99.90
2907;DHT22;1463;51.070;16.998;2023-12-29T13:43:42;11.90;99.90
2907;DHT22;1463;51.070;16.998;2023-12-29T13:46:12;11.80;99.90
2907;DHT22;1463;51.070;16.998;2023-12-29T13:48:40;11.70;99.90
2907;DHT22;1463;51.070;16.998;2023-12-29T13:51:07;11.60;99.90
2907;DHT22;1463;51.070;16.998;2023-12-29T13:53:34;11.70;99.90
2907;DHT22;1463;51.070;16.998;2023-12-29T13:56:08;11.60;99.90
2907;DHT22;1463;51.070;16.998;2023-12-29T13:58:36;11.50;99.90
2907;DHT22;1463;51.070;16.998;2023-12-29T14:01:06;11.50;99.90
2907;DHT22;1463;51.070;16.998;2023-12-29T14:03:41;11.50;99.90
2907;DHT22;1463;51.070;16.998;2023-12-29T14:06:12;11.50;99.90
2907;DHT22;1463;51.070;16.998;2023-12-29T14:08:45;11.50;99.90
2907;DHT22;1463;51.070;16.998;2023-12-29T14:11:12;11.30;99.90
2907;DHT22;1463;51.070;16.998;2023-12-29T14:13:43;11.40;99.90
2907;DHT22;1463;51.070;16.998;2023-12-29T14:16:09;11.30;99.90
2907;DHT22;1463;51.070;16.998;2023-12-29T14:18:52;11.30;99.90
2907;DHT22;1463;51.070;16.998;2023-12-29T14:21:23;11.20;99.90
2907;DHT22;1463;51.070;16.998;2023-12-29T14:24:02;11.20;99.90
2907;DHT22;1463;51.070;16.998;2023-12-29T14:26:32;11.20;99.90
2907;DHT22;1463;51.070;16.998;2023-12-29T14:29:04;11.20;99.90
2907;DHT22;1463;51.070;16.998;2023-12-29T14:31:34;11.10;99.90
2907;DHT22;1463;51.070;16.998;2023-12-29T14:34:02;11.00;99.90
2907;DHT22;1463;51.070;16.998;2023-12-29T14:36:29;11.10;99.90
2907;DHT22;1463;51.070;16.998;2023-12-29T14:38:55;11.00;99.90
2907;DHT22;1463;51.070;16.998;2023-12-29T14:41:22;11.10;99.90
2907;DHT22;1463;51.070;16.998;2023-12-29T14:43:49;11.00;99.90
2907;DHT22;1463;51.070;16.998;2023-12-29T14:46:17;10.90;99.90
2907;DHT22;1463;51.070;16.998;2023-12-29T14:48:44;10.90;99.90
2907;DHT22;1463;51.070;16.998;2023-12-29T14:51:10;10.90;99.90
2907;DHT22;1463;51.070;16.998;2023-12-29T14:53:37;10.90;99.90
2907;DHT22;1463;51.070;16.998;2023-12-29T14:56:05;10.90;99.90
2907;DHT22;1463;51.070;16.998;2023-12-29T14:58:31;10.80;99.90
2907;DHT22;1463;51.070;16.998;2023-12-29T15:00:58;10.80;99.90
2907;DHT22;1463;51.070;16.998;2023-12-29T15:03:26;10.70;99.90
2907;DHT22;1463;51.070;16.998;2023-12-29T15:05:53;10.70;99.90
2907;DHT22;1463;51.070;16.998;2023-12-29T15:08:20;10.70;99.90
2907;DHT22;1463;51.070;16.998;2023-12-29T15:10:46;10.70;99.90
2907;DHT22;1463;51.070;16.998;2023-12-29T15:13:13;10.70;99.90
2907;DHT22;1463;51.070;16.998;2023-12-29T15:15:40;10.60;99.90
2907;DHT22;1463;51.070;16.998;2023-12-29T15:18:06;10.60;99.90
2907;DHT22;1463;51.070;16.998;2023-12-29T15:20:34;10.70;99.90
2907;DHT22;1463;51.070;16.998;2023-12-29T15:23:01;10.60;99.90
2907;DHT22;1463;51.070;16.998;2023-12-29T15:25:28;10.50;99.90
2907;DHT22;1463;51.070;16.998;2023-12-29T15:27:54;10.50;99.90
2907;DHT22;1463;51.070;16.998;2023-12-29T15:30:21;10.50;99.90
2907;DHT22;1463;51.070;16.998;2023-12-29T15:32:48;10.50;99.90
2907;DHT22;1463;51.070;16.998;2023-12-29T15:35:15;10.40;99.90
2907;DHT22;1463;51.070;16.998;2023-12-29T15:37:43;10.40;99.90
2907;DHT22;1463;51.070;16.998;2023-12-29T15:40:10;10.30;99.90
2907;DHT22;1463;51.070;16.998;2023-12-29T15:42:37;10.40;99.90
2907;DHT22;1463;51.070;16.998;2023-12-29T15:45:04;10.30;99.90
2907;DHT22;1463;51.070;16.998;2023-12-29T15:47:30;10.30;99.90
2907;DHT22;1463;51.070;16.998;2023-12-29T15:49:57;10.20;99.90
2907;DHT22;1463;51.070;16.998;2023-12-29T15:52:24;10.20;99.90
2907;DHT22;1463;51.070;16.998;2023-12-29T15:54:53;10.20;99.90
2907;DHT22;1463;51.070;16.998;2023-12-29T15:57:20;10.10;99.90
2907;DHT22;1463;51.070;16.998;2023-12-29T15:59:46;10.10;99.90
2907;DHT22;1463;51.070;16.998;2023-12-29T16:02:13;10.10;99.90